Terminal Aerodrome Forecast
Issued by NWS

Home | Current Version | Previous Version | Text Only | Print | Product List | Glossary On
Versions: 1 2 3 4 5 6 7 8 9 10 11 12 13 14 15 16 17 18 19 20 21 22 23 24 25 26 27 28 29 30 31 32 33 34 35 36 37 38 39 40 41 42 43 44 45 46 47
000
FTUS42 KMFL 250523
TAFOPF
TAF
KOPF 250523Z 2506/2606 18010KT P6SM VCSH FEW015 SCT035 BKN070
      TEMPO 2507/2509 3SM RA SCT015 BKN025 OVC070
     FM250900 27007KT P6SM VCSH SCT015 BKN025
     FM251500 33008KT P6SM SCT015 BKN025
     FM260000 03010KT P6SM SCT020 BKN050=

USA.gov is the U.S. government's official web portal to all federal, state and local government web resources and services.